sensor_id;sensor_type;location;lat;lon;timestamp;P1;durP1;ratioP1;P2;durP2;ratioP2
19016;SDS011;9641;51.494;6.670;2024-02-16T00:00:57;7.83;;;2.93;;
19016;SDS011;9641;51.494;6.670;2024-02-16T00:03:25;4.97;;;2.80;;
19016;SDS011;9641;51.494;6.670;2024-02-16T00:05:52;7.27;;;2.53;;
19016;SDS011;9641;51.494;6.670;2024-02-16T00:08:18;4.83;;;2.50;;
19016;SDS011;9641;51.494;6.670;2024-02-16T00:10:46;10.27;;;3.33;;
19016;SDS011;9641;51.494;6.670;2024-02-16T00:13:13;7.33;;;3.27;;
19016;SDS011;9641;51.494;6.670;2024-02-16T00:15:41;5.17;;;2.77;;
19016;SDS011;9641;51.494;6.670;2024-02-16T00:18:08;6.03;;;2.97;;
19016;SDS011;9641;51.494;6.670;2024-02-16T00:20:35;6.70;;;2.87;;
19016;SDS011;9641;51.494;6.670;2024-02-16T00:23:03;7.27;;;2.90;;
19016;SDS011;9641;51.494;6.670;2024-02-16T00:25:30;6.40;;;3.30;;
19016;SDS011;9641;51.494;6.670;2024-02-16T00:27:58;7.67;;;3.17;;
19016;SDS011;9641;51.494;6.670;2024-02-16T00:30:25;7.40;;;3.33;;
19016;SDS011;9641;51.494;6.670;2024-02-16T00:32:54;7.53;;;3.60;;
19016;SDS011;9641;51.494;6.670;2024-02-16T00:35:21;8.73;;;3.27;;
19016;SDS011;9641;51.494;6.670;2024-02-16T00:37:48;6.17;;;2.73;;
19016;SDS011;9641;51.494;6.670;2024-02-16T00:40:15;9.57;;;3.20;;
19016;SDS011;9641;51.494;6.670;2024-02-16T00:42:42;7.07;;;3.20;;
19016;SDS011;9641;51.494;6.670;2024-02-16T00:45:08;9.27;;;3.53;;
19016;SDS011;9641;51.494;6.670;2024-02-16T00:47:35;9.20;;;3.10;;
19016;SDS011;9641;51.494;6.670;2024-02-16T00:50:04;6.60;;;3.20;;
19016;SDS011;9641;51.494;6.670;2024-02-16T00:52:34;9.60;;;3.80;;
19016;SDS011;9641;51.494;6.670;2024-02-16T00:55:02;6.73;;;3.30;;
19016;SDS011;9641;51.494;6.670;2024-02-16T00:57:29;8.93;;;4.33;;
19016;SDS011;9641;51.494;6.670;2024-02-16T00:59:55;7.73;;;3.23;;
19016;SDS011;9641;51.494;6.670;2024-02-16T01:02:22;8.53;;;4.10;;
19016;SDS011;9641;51.494;6.670;2024-02-16T01:04:49;9.57;;;4.07;;
19016;SDS011;9641;51.494;6.670;2024-02-16T01:07:18;7.27;;;3.13;;
19016;SDS011;9641;51.494;6.670;2024-02-16T01:09:45;5.00;;;2.60;;
19016;SDS011;9641;51.494;6.670;2024-02-16T01:12:11;5.53;;;2.63;;
19016;SDS011;9641;51.494;6.670;2024-02-16T01:14:38;7.27;;;2.90;;
19016;SDS011;9641;51.494;6.670;2024-02-16T01:17:05;5.97;;;2.87;;
19016;SDS011;9641;51.494;6.670;2024-02-16T01:19:32;9.67;;;2.70;;
19016;SDS011;9641;51.494;6.670;2024-02-16T01:21:58;6.03;;;2.30;;
19016;SDS011;9641;51.494;6.670;2024-02-16T01:24:27;3.80;;;2.30;;
19016;SDS011;9641;51.494;6.670;2024-02-16T01:26:53;4.23;;;2.00;;
19016;SDS011;9641;51.494;6.670;2024-02-16T01:29:20;3.27;;;1.90;;
19016;SDS011;9641;51.494;6.670;2024-02-16T01:31:48;11.07;;;2.23;;
19016;SDS011;9641;51.494;6.670;2024-02-16T01:34:15;5.17;;;2.30;;
19016;SDS011;9641;51.494;6.670;2024-02-16T01:36:42;4.23;;;2.27;;
19016;SDS011;9641;51.494;6.670;2024-02-16T01:39:09;3.53;;;2.20;;
19016;SDS011;9641;51.494;6.670;2024-02-16T01:41:39;3.60;;;2.20;;
19016;SDS011;9641;51.494;6.670;2024-02-16T01:44:06;4.93;;;2.13;;
19016;SDS011;9641;51.494;6.670;2024-02-16T01:46:33;3.73;;;2.37;;
19016;SDS011;9641;51.494;6.670;2024-02-16T01:49:00;3.30;;;1.67;;
19016;SDS011;9641;51.494;6.670;2024-02-16T01:51:29;4.83;;;2.30;;
19016;SDS011;9641;51.494;6.670;2024-02-16T01:53:56;3.07;;;2.03;;
19016;SDS011;9641;51.494;6.670;2024-02-16T01:56:26;4.60;;;2.10;;
19016;SDS011;9641;51.494;6.670;2024-02-16T01:58:54;3.93;;;2.07;;
19016;SDS011;9641;51.494;6.670;2024-02-16T02:01:21;3.90;;;2.67;;
19016;SDS011;9641;51.494;6.670;2024-02-16T02:03:48;9.23;;;3.00;;
19016;SDS011;9641;51.494;6.670;2024-02-16T02:06:15;6.43;;;2.17;;
19016;SDS011;9641;51.494;6.670;2024-02-16T02:08:41;4.87;;;2.40;;
19016;SDS011;9641;51.494;6.670;2024-02-16T02:11:08;3.83;;;2.30;;
19016;SDS011;9641;51.494;6.670;2024-02-16T02:13:35;4.07;;;2.90;;
19016;SDS011;9641;51.494;6.670;2024-02-16T02:16:04;10.60;;;2.90;;
19016;SDS011;9641;51.494;6.670;2024-02-16T02:18:33;5.33;;;3.03;;
19016;SDS011;9641;51.494;6.670;2024-02-16T02:20:59;4.60;;;2.40;;
19016;SDS011;9641;51.494;6.670;2024-02-16T02:23:28;6.33;;;2.60;;
19016;SDS011;9641;51.494;6.670;2024-02-16T02:25:54;6.77;;;2.53;;
19016;SDS011;9641;51.494;6.670;2024-02-16T02:28:21;7.73;;;3.30;;
19016;SDS011;9641;51.494;6.670;2024-02-16T02:30:49;7.00;;;3.50;;
19016;SDS011;9641;51.494;6.670;2024-02-16T02:33:15;7.63;;;3.53;;
19016;SDS011;9641;51.494;6.670;2024-02-16T02:35:42;9.20;;;3.63;;
19016;SDS011;9641;51.494;6.670;2024-02-16T02:38:09;7.33;;;3.33;;
19016;SDS011;9641;51.494;6.670;2024-02-16T02:40:37;4.37;;;2.90;;
19016;SDS011;9641;51.494;6.670;2024-02-16T02:43:04;7.13;;;2.77;;
19016;SDS011;9641;51.494;6.670;2024-02-16T02:45:31;6.47;;;3.27;;
19016;SDS011;9641;51.494;6.670;2024-02-16T02:47:58;6.73;;;2.87;;
19016;SDS011;9641;51.494;6.670;2024-02-16T02:50:25;6.63;;;2.80;;
19016;SDS011;9641;51.494;6.670;2024-02-16T02:52:52;5.33;;;3.07;;
19016;SDS011;9641;51.494;6.670;2024-02-16T02:55:19;9.20;;;3.47;;
19016;SDS011;9641;51.494;6.670;2024-02-16T02:57:48;8.00;;;3.90;;
19016;SDS011;9641;51.494;6.670;2024-02-16T03:00:15;9.70;;;4.20;;
19016;SDS011;9641;51.494;6.670;2024-02-16T03:02:42;8.63;;;4.60;;
19016;SDS011;9641;51.494;6.670;2024-02-16T03:05:10;9.70;;;4.10;;
19016;SDS011;9641;51.494;6.670;2024-02-16T03:07:37;13.03;;;4.63;;
19016;SDS011;9641;51.494;6.670;2024-02-16T03:10:04;7.07;;;3.73;;
19016;SDS011;9641;51.494;6.670;2024-02-16T03:12:34;6.50;;;4.10;;
19016;SDS011;9641;51.494;6.670;2024-02-16T03:15:02;8.80;;;3.77;;
19016;SDS011;9641;51.494;6.670;2024-02-16T03:17:29;7.17;;;3.83;;
19016;SDS011;9641;51.494;6.670;2024-02-16T03:19:56;8.63;;;3.70;;
19016;SDS011;9641;51.494;6.670;2024-02-16T03:22:23;5.40;;;3.07;;
19016;SDS011;9641;51.494;6.670;2024-02-16T03:24:50;7.30;;;2.77;;
19016;SDS011;9641;51.494;6.670;2024-02-16T03:27:17;9.27;;;3.37;;
19016;SDS011;9641;51.494;6.670;2024-02-16T03:29:43;6.23;;;2.50;;
19016;SDS011;9641;51.494;6.670;2024-02-16T03:32:12;4.10;;;2.90;;
19016;SDS011;9641;51.494;6.670;2024-02-16T03:34:39;8.70;;;2.97;;
19016;SDS011;9641;51.494;6.670;2024-02-16T03:37:05;5.97;;;3.20;;
19016;SDS011;9641;51.494;6.670;2024-02-16T03:39:33;7.23;;;3.33;;
19016;SDS011;9641;51.494;6.670;2024-02-16T03:42:00;7.63;;;3.13;;
19016;SDS011;9641;51.494;6.670;2024-02-16T03:44:27;7.73;;;3.60;;
19016;SDS011;9641;51.494;6.670;2024-02-16T03:46:53;6.70;;;3.30;;
19016;SDS011;9641;51.494;6.670;2024-02-16T03:49:22;6.53;;;3.57;;
19016;SDS011;9641;51.494;6.670;2024-02-16T03:51:48;8.00;;;3.53;;
19016;SDS011;9641;51.494;6.670;2024-02-16T03:54:15;7.03;;;3.50;;
19016;SDS011;9641;51.494;6.670;2024-02-16T03:56:42;8.33;;;3.03;;
19016;SDS011;9641;51.494;6.670;2024-02-16T03:59:10;10.80;;;3.23;;
19016;SDS011;9641;51.494;6.670;2024-02-16T04:01:37;6.37;;;2.93;;
19016;SDS011;9641;51.494;6.670;2024-02-16T04:04:07;7.80;;;2.83;;
19016;SDS011;9641;51.494;6.670;2024-02-16T04:06:35;10.10;;;2.83;;
19016;SDS011;9641;51.494;6.670;2024-02-16T04:09:04;15.27;;;3.23;;
19016;SDS011;9641;51.494;6.670;2024-02-16T04:11:31;5.77;;;3.00;;
19016;SDS011;9641;51.494;6.670;2024-02-16T04:14:00;7.07;;;3.00;;
19016;SDS011;9641;51.494;6.670;2024-02-16T04:16:27;6.43;;;2.73;;
19016;SDS011;9641;51.494;6.670;2024-02-16T04:18:54;7.60;;;3.23;;
19016;SDS011;9641;51.494;6.670;2024-02-16T04:21:21;5.87;;;3.20;;
19016;SDS011;9641;51.494;6.670;2024-02-16T04:23:49;5.33;;;2.70;;
19016;SDS011;9641;51.494;6.670;2024-02-16T04:26:16;7.27;;;3.40;;
19016;SDS011;9641;51.494;6.670;2024-02-16T04:28:43;7.23;;;3.20;;
19016;SDS011;9641;51.494;6.670;2024-02-16T04:31:10;5.80;;;3.33;;
19016;SDS011;9641;51.494;6.670;2024-02-16T04:33:36;8.40;;;4.07;;
19016;SDS011;9641;51.494;6.670;2024-02-16T04:36:05;8.93;;;3.83;;
19016;SDS011;9641;51.494;6.670;2024-02-16T04:38:33;11.73;;;4.03;;
19016;SDS011;9641;51.494;6.670;2024-02-16T04:41:01;7.03;;;4.03;;
19016;SDS011;9641;51.494;6.670;2024-02-16T04:43:31;8.07;;;4.47;;
19016;SDS011;9641;51.494;6.670;2024-02-16T04:45:57;10.10;;;4.83;;
19016;SDS011;9641;51.494;6.670;2024-02-16T04:48:24;10.60;;;4.00;;
19016;SDS011;9641;51.494;6.670;2024-02-16T04:50:51;7.77;;;3.80;;
19016;SDS011;9641;51.494;6.670;2024-02-16T04:53:18;10.70;;;4.30;;
19016;SDS011;9641;51.494;6.670;2024-02-16T04:55:45;8.63;;;3.90;;
19016;SDS011;9641;51.494;6.670;2024-02-16T04:58:14;7.97;;;3.87;;
19016;SDS011;9641;51.494;6.670;2024-02-16T05:00:40;7.33;;;4.00;;
19016;SDS011;9641;51.494;6.670;2024-02-16T05:03:07;9.10;;;3.60;;
19016;SDS011;9641;51.494;6.670;2024-02-16T05:05:34;8.87;;;3.70;;
19016;SDS011;9641;51.494;6.670;2024-02-16T05:08:01;9.17;;;3.57;;
19016;SDS011;9641;51.494;6.670;2024-02-16T05:10:28;4.93;;;3.00;;
19016;SDS011;9641;51.494;6.670;2024-02-16T05:12:56;6.67;;;3.60;;
19016;SDS011;9641;51.494;6.670;2024-02-16T05:15:26;8.87;;;4.27;;
19016;SDS011;9641;51.494;6.670;2024-02-16T05:17:53;8.37;;;3.07;;
19016;SDS011;9641;51.494;6.670;2024-02-16T05:20:20;7.90;;;3.30;;
19016;SDS011;9641;51.494;6.670;2024-02-16T05:22:47;8.07;;;3.30;;
19016;SDS011;9641;51.494;6.670;2024-02-16T05:25:14;6.80;;;3.20;;
19016;SDS011;9641;51.494;6.670;2024-02-16T05:27:43;9.20;;;4.10;;
19016;SDS011;9641;51.494;6.670;2024-02-16T05:30:10;6.40;;;3.40;;
19016;SDS011;9641;51.494;6.670;2024-02-16T05:32:41;7.50;;;3.70;;
19016;SDS011;9641;51.494;6.670;2024-02-16T05:35:09;6.60;;;3.23;;
19016;SDS011;9641;51.494;6.670;2024-02-16T05:37:39;10.70;;;3.87;;
19016;SDS011;9641;51.494;6.670;2024-02-16T05:40:09;6.70;;;3.63;;
19016;SDS011;9641;51.494;6.670;2024-02-16T05:42:47;8.73;;;3.57;;
19016;SDS011;9641;51.494;6.670;2024-02-16T05:45:14;6.37;;;3.83;;
19016;SDS011;9641;51.494;6.670;2024-02-16T05:47:42;5.83;;;3.40;;
19016;SDS011;9641;51.494;6.670;2024-02-16T05:50:11;8.43;;;3.47;;
19016;SDS011;9641;51.494;6.670;2024-02-16T05:52:38;5.97;;;3.30;;
19016;SDS011;9641;51.494;6.670;2024-02-16T05:55:06;8.17;;;2.90;;
19016;SDS011;9641;51.494;6.670;2024-02-16T05:57:34;7.83;;;3.30;;
19016;SDS011;9641;51.494;6.670;2024-02-16T06:00:01;7.20;;;3.10;;
19016;SDS011;9641;51.494;6.670;2024-02-16T06:02:30;10.63;;;3.63;;
19016;SDS011;9641;51.494;6.670;2024-02-16T06:04:58;9.00;;;3.37;;
19016;SDS011;9641;51.494;6.670;2024-02-16T06:07:25;6.60;;;3.77;;
19016;SDS011;9641;51.494;6.670;2024-02-16T06:09:52;6.73;;;2.93;;
19016;SDS011;9641;51.494;6.670;2024-02-16T06:12:21;7.57;;;3.70;;
19016;SDS011;9641;51.494;6.670;2024-02-16T06:14:47;10.33;;;4.00;;
19016;SDS011;9641;51.494;6.670;2024-02-16T06:17:14;7.07;;;3.77;;
19016;SDS011;9641;51.494;6.670;2024-02-16T06:19:46;8.40;;;3.60;;
19016;SDS011;9641;51.494;6.670;2024-02-16T06:22:14;9.73;;;3.73;;
19016;SDS011;9641;51.494;6.670;2024-02-16T06:24:41;7.33;;;4.07;;
19016;SDS011;9641;51.494;6.670;2024-02-16T06:27:08;9.17;;;4.57;;
19016;SDS011;9641;51.494;6.670;2024-02-16T06:29:35;9.47;;;4.83;;
19016;SDS011;9641;51.494;6.670;2024-02-16T06:32:01;12.27;;;5.97;;
19016;SDS011;9641;51.494;6.670;2024-02-16T06:34:29;9.13;;;4.63;;
19016;SDS011;9641;51.494;6.670;2024-02-16T06:36:56;11.73;;;5.50;;
19016;SDS011;9641;51.494;6.670;2024-02-16T06:39:25;10.07;;;5.33;;
19016;SDS011;9641;51.494;6.670;2024-02-16T06:41:51;9.70;;;4.80;;
19016;SDS011;9641;51.494;6.670;2024-02-16T06:44:19;8.63;;;4.47;;
19016;SDS011;9641;51.494;6.670;2024-02-16T06:46:45;13.63;;;5.00;;
19016;SDS011;9641;51.494;6.670;2024-02-16T06:49:12;14.00;;;4.77;;
19016;SDS011;9641;51.494;6.670;2024-02-16T06:51:39;9.00;;;4.67;;
19016;SDS011;9641;51.494;6.670;2024-02-16T06:54:06;6.23;;;4.03;;
19016;SDS011;9641;51.494;6.670;2024-02-16T06:56:34;7.47;;;4.17;;
19016;SDS011;9641;51.494;6.670;2024-02-16T06:59:01;8.27;;;4.47;;
19016;SDS011;9641;51.494;6.670;2024-02-16T07:01:28;11.00;;;5.13;;
19016;SDS011;9641;51.494;6.670;2024-02-16T07:03:55;9.90;;;4.90;;
19016;SDS011;9641;51.494;6.670;2024-02-16T07:06:22;8.07;;;4.40;;
19016;SDS011;9641;51.494;6.670;2024-02-16T07:08:49;10.77;;;4.30;;
19016;SDS011;9641;51.494;6.670;2024-02-16T07:11:15;6.13;;;3.43;;
19016;SDS011;9641;51.494;6.670;2024-02-16T07:13:47;6.37;;;2.90;;
19016;SDS011;9641;51.494;6.670;2024-02-16T07:16:14;4.93;;;2.53;;
19016;SDS011;9641;51.494;6.670;2024-02-16T07:18:41;4.77;;;2.80;;
19016;SDS011;9641;51.494;6.670;2024-02-16T07:21:08;4.27;;;2.60;;
19016;SDS011;9641;51.494;6.670;2024-02-16T07:23:35;5.63;;;2.90;;
19016;SDS011;9641;51.494;6.670;2024-02-16T07:26:02;5.93;;;2.90;;
19016;SDS011;9641;51.494;6.670;2024-02-16T07:28:33;4.87;;;2.87;;
19016;SDS011;9641;51.494;6.670;2024-02-16T07:31:01;6.00;;;2.57;;
19016;SDS011;9641;51.494;6.670;2024-02-16T07:33:28;5.80;;;2.47;;
19016;SDS011;9641;51.494;6.670;2024-02-16T07:35:55;4.37;;;2.63;;
19016;SDS011;9641;51.494;6.670;2024-02-16T07:38:22;3.13;;;2.67;;
19016;SDS011;9641;51.494;6.670;2024-02-16T07:40:49;4.47;;;2.43;;
19016;SDS011;9641;51.494;6.670;2024-02-16T07:43:16;6.27;;;2.90;;
19016;SDS011;9641;51.494;6.670;2024-02-16T07:45:43;7.73;;;2.93;;
19016;SDS011;9641;51.494;6.670;2024-02-16T07:48:12;4.97;;;2.93;;
19016;SDS011;9641;51.494;6.670;2024-02-16T07:50:39;4.03;;;2.77;;
19016;SDS011;9641;51.494;6.670;2024-02-16T07:53:06;3.80;;;2.40;;
19016;SDS011;9641;51.494;6.670;2024-02-16T07:55:34;6.27;;;3.00;;
19016;SDS011;9641;51.494;6.670;2024-02-16T07:58:01;7.87;;;2.80;;
19016;SDS011;9641;51.494;6.670;2024-02-16T08:00:28;6.83;;;3.03;;
19016;SDS011;9641;51.494;6.670;2024-02-16T08:02:55;6.10;;;2.83;;
19016;SDS011;9641;51.494;6.670;2024-02-16T08:05:23;6.00;;;3.00;;
19016;SDS011;9641;51.494;6.670;2024-02-16T08:07:51;8.63;;;3.30;;
19016;SDS011;9641;51.494;6.670;2024-02-16T08:10:18;4.93;;;3.10;;
19016;SDS011;9641;51.494;6.670;2024-02-16T08:12:47;5.80;;;3.00;;
19016;SDS011;9641;51.494;6.670;2024-02-16T08:15:16;7.03;;;3.47;;
19016;SDS011;9641;51.494;6.670;2024-02-16T08:17:48;11.93;;;3.60;;
19016;SDS011;9641;51.494;6.670;2024-02-16T08:20:14;8.67;;;3.23;;
19016;SDS011;9641;51.494;6.670;2024-02-16T08:22:42;6.33;;;3.07;;
19016;SDS011;9641;51.494;6.670;2024-02-16T08:25:09;6.07;;;2.93;;
19016;SDS011;9641;51.494;6.670;2024-02-16T08:27:36;7.00;;;3.30;;
19016;SDS011;9641;51.494;6.670;2024-02-16T08:30:04;8.70;;;3.13;;
19016;SDS011;9641;51.494;6.670;2024-02-16T08:32:34;6.97;;;2.93;;
19016;SDS011;9641;51.494;6.670;2024-02-16T08:35:00;7.17;;;3.50;;
19016;SDS011;9641;51.494;6.670;2024-02-16T08:37:28;6.57;;;3.20;;
19016;SDS011;9641;51.494;6.670;2024-02-16T08:39:57;10.57;;;3.10;;
19016;SDS011;9641;51.494;6.670;2024-02-16T08:42:24;5.97;;;3.17;;
19016;SDS011;9641;51.494;6.670;2024-02-16T08:44:51;15.10;;;3.47;;
19016;SDS011;9641;51.494;6.670;2024-02-16T08:47:18;8.07;;;3.00;;
19016;SDS011;9641;51.494;6.670;2024-02-16T08:49:44;7.40;;;2.70;;
19016;SDS011;9641;51.494;6.670;2024-02-16T08:52:11;8.87;;;3.30;;
19016;SDS011;9641;51.494;6.670;2024-02-16T08:54:38;6.23;;;2.90;;
19016;SDS011;9641;51.494;6.670;2024-02-16T08:57:06;15.60;;;4.27;;
19016;SDS011;9641;51.494;6.670;2024-02-16T08:59:33;8.80;;;3.50;;
19016;SDS011;9641;51.494;6.670;2024-02-16T09:02:00;6.90;;;3.13;;
19016;SDS011;9641;51.494;6.670;2024-02-16T09:04:27;7.30;;;3.20;;
19016;SDS011;9641;51.494;6.670;2024-02-16T09:06:53;6.87;;;3.20;;
19016;SDS011;9641;51.494;6.670;2024-02-16T09:09:20;5.77;;;3.00;;
19016;SDS011;9641;51.494;6.670;2024-02-16T09:11:47;8.23;;;3.13;;
19016;SDS011;9641;51.494;6.670;2024-02-16T09:14:16;12.27;;;3.83;;
19016;SDS011;9641;51.494;6.670;2024-02-16T09:16:43;12.87;;;3.10;;
19016;SDS011;9641;51.494;6.670;2024-02-16T09:19:10;9.67;;;3.67;;
19016;SDS011;9641;51.494;6.670;2024-02-16T09:21:37;8.23;;;3.27;;
19016;SDS011;9641;51.494;6.670;2024-02-16T09:24:06;7.97;;;2.77;;
19016;SDS011;9641;51.494;6.670;2024-02-16T09:26:35;4.83;;;2.90;;
19016;SDS011;9641;51.494;6.670;2024-02-16T09:29:02;3.83;;;2.60;;
19016;SDS011;9641;51.494;6.670;2024-02-16T09:31:30;5.10;;;2.80;;
19016;SDS011;9641;51.494;6.670;2024-02-16T09:33:57;7.27;;;2.67;;
19016;SDS011;9641;51.494;6.670;2024-02-16T09:36:24;6.80;;;2.43;;
19016;SDS011;9641;51.494;6.670;2024-02-16T09:38:51;7.90;;;2.80;;
19016;SDS011;9641;51.494;6.670;2024-02-16T09:41:18;8.97;;;2.43;;
19016;SDS011;9641;51.494;6.670;2024-02-16T09:43:45;6.57;;;2.70;;
19016;SDS011;9641;51.494;6.670;2024-02-16T09:46:12;6.53;;;2.60;;
19016;SDS011;9641;51.494;6.670;2024-02-16T09:48:40;3.67;;;2.27;;
19016;SDS011;9641;51.494;6.670;2024-02-16T09:51:10;6.30;;;2.67;;
19016;SDS011;9641;51.494;6.670;2024-02-16T09:53:37;4.93;;;2.57;;
19016;SDS011;9641;51.494;6.670;2024-02-16T09:56:05;4.53;;;2.60;;
19016;SDS011;9641;51.494;6.670;2024-02-16T09:58:34;6.43;;;2.60;;
19016;SDS011;9641;51.494;6.670;2024-02-16T10:01:01;3.40;;;2.37;;
19016;SDS011;9641;51.494;6.670;2024-02-16T10:03:29;4.80;;;2.53;;
19016;SDS011;9641;51.494;6.670;2024-02-16T10:06:06;4.40;;;2.40;;
19016;SDS011;9641;51.494;6.670;2024-02-16T10:08:33;4.40;;;2.80;;
19016;SDS011;9641;51.494;6.670;2024-02-16T10:11:01;5.77;;;2.40;;
19016;SDS011;9641;51.494;6.670;2024-02-16T10:13:29;4.83;;;2.60;;
19016;SDS011;9641;51.494;6.670;2024-02-16T10:16:03;6.83;;;2.83;;
19016;SDS011;9641;51.494;6.670;2024-02-16T10:18:33;5.47;;;3.13;;
19016;SDS011;9641;51.494;6.670;2024-02-16T10:21:00;5.77;;;2.57;;
19016;SDS011;9641;51.494;6.670;2024-02-16T10:23:28;5.10;;;2.83;;
19016;SDS011;9641;51.494;6.670;2024-02-16T10:25:57;8.00;;;2.93;;
19016;SDS011;9641;51.494;6.670;2024-02-16T10:28:26;7.50;;;2.60;;
19016;SDS011;9641;51.494;6.670;2024-02-16T10:30:57;6.17;;;2.60;;
19016;SDS011;9641;51.494;6.670;2024-02-16T10:33:26;9.07;;;3.07;;
19016;SDS011;9641;51.494;6.670;2024-02-16T10:35:58;9.13;;;2.87;;
19016;SDS011;9641;51.494;6.670;2024-02-16T10:38:29;10.20;;;2.60;;
19016;SDS011;9641;51.494;6.670;2024-02-16T10:40:56;5.10;;;3.33;;
19016;SDS011;9641;51.494;6.670;2024-02-16T10:43:26;7.80;;;2.70;;
19016;SDS011;9641;51.494;6.670;2024-02-16T10:45:55;7.67;;;3.30;;
19016;SDS011;9641;51.494;6.670;2024-02-16T10:48:23;6.70;;;2.60;;
19016;SDS011;9641;51.494;6.670;2024-02-16T10:50:50;8.33;;;3.50;;
19016;SDS011;9641;51.494;6.670;2024-02-16T10:53:19;8.20;;;3.10;;
19016;SDS011;9641;51.494;6.670;2024-02-16T10:55:51;7.60;;;2.87;;
19016;SDS011;9641;51.494;6.670;2024-02-16T10:58:18;6.37;;;2.90;;
19016;SDS011;9641;51.494;6.670;2024-02-16T11:00:51;9.70;;;2.97;;
19016;SDS011;9641;51.494;6.670;2024-02-16T11:03:21;7.23;;;2.77;;
19016;SDS011;9641;51.494;6.670;2024-02-16T11:05:50;9.83;;;2.77;;
19016;SDS011;9641;51.494;6.670;2024-02-16T11:08:18;8.90;;;3.60;;
19016;SDS011;9641;51.494;6.670;2024-02-16T11:10:57;6.20;;;3.40;;
19016;SDS011;9641;51.494;6.670;2024-02-16T11:13:24;6.03;;;2.87;;
19016;SDS011;9641;51.494;6.670;2024-02-16T11:15:57;7.00;;;3.40;;
19016;SDS011;9641;51.494;6.670;2024-02-16T11:18:26;11.10;;;3.33;;
19016;SDS011;9641;51.494;6.670;2024-02-16T11:20:54;6.60;;;3.20;;
19016;SDS011;9641;51.494;6.670;2024-02-16T11:23:24;6.03;;;3.17;;
19016;SDS011;9641;51.494;6.670;2024-02-16T11:25:54;4.00;;;3.00;;
19016;SDS011;9641;51.494;6.670;2024-02-16T11:28:25;7.00;;;3.17;;
19016;SDS011;9641;51.494;6.670;2024-02-16T11:30:53;7.90;;;3.40;;
19016;SDS011;9641;51.494;6.670;2024-02-16T11:33:20;9.80;;;3.67;;
19016;SDS011;9641;51.494;6.670;2024-02-16T11:35:52;7.40;;;3.20;;
19016;SDS011;9641;51.494;6.670;2024-02-16T11:38:19;7.37;;;3.40;;
19016;SDS011;9641;51.494;6.670;2024-02-16T11:40:52;13.00;;;3.83;;
19016;SDS011;9641;51.494;6.670;2024-02-16T11:43:25;8.10;;;3.67;;
19016;SDS011;9641;51.494;6.670;2024-02-16T11:45:52;10.03;;;3.70;;
19016;SDS011;9641;51.494;6.670;2024-02-16T11:48:19;7.13;;;4.00;;
19016;SDS011;9641;51.494;6.670;2024-02-16T11:50:48;9.30;;;3.50;;
19016;SDS011;9641;51.494;6.670;2024-02-16T11:53:18;7.37;;;3.10;;
19016;SDS011;9641;51.494;6.670;2024-02-16T11:55:48;8.37;;;3.50;;
19016;SDS011;9641;51.494;6.670;2024-02-16T11:58:17;11.77;;;4.37;;
19016;SDS011;9641;51.494;6.670;2024-02-16T12:00:45;6.77;;;3.70;;
19016;SDS011;9641;51.494;6.670;2024-02-16T12:03:17;6.20;;;3.97;;
19016;SDS011;9641;51.494;6.670;2024-02-16T12:05:49;8.10;;;3.83;;
19016;SDS011;9641;51.494;6.670;2024-02-16T12:08:17;8.03;;;4.20;;
19016;SDS011;9641;51.494;6.670;2024-02-16T12:10:44;10.87;;;4.00;;
19016;SDS011;9641;51.494;6.670;2024-02-16T12:13:12;9.00;;;3.67;;
19016;SDS011;9641;51.494;6.670;2024-02-16T12:15:40;13.73;;;4.30;;
19016;SDS011;9641;51.494;6.670;2024-02-16T12:18:07;10.20;;;3.90;;
19016;SDS011;9641;51.494;6.670;2024-02-16T12:20:34;9.37;;;3.80;;
19016;SDS011;9641;51.494;6.670;2024-02-16T12:23:10;8.57;;;3.87;;
19016;SDS011;9641;51.494;6.670;2024-02-16T12:25:37;7.80;;;4.33;;
19016;SDS011;9641;51.494;6.670;2024-02-16T12:28:04;10.97;;;4.03;;
19016;SDS011;9641;51.494;6.670;2024-02-16T12:30:33;6.23;;;3.97;;
19016;SDS011;9641;51.494;6.670;2024-02-16T12:33:01;7.30;;;4.17;;
19016;SDS011;9641;51.494;6.670;2024-02-16T12:35:28;8.27;;;4.53;;
19016;SDS011;9641;51.494;6.670;2024-02-16T12:37:55;9.33;;;4.70;;
19016;SDS011;9641;51.494;6.670;2024-02-16T12:40:22;11.57;;;4.80;;
19016;SDS011;9641;51.494;6.670;2024-02-16T12:42:49;9.03;;;4.97;;
19016;SDS011;9641;51.494;6.670;2024-02-16T12:45:15;8.43;;;4.83;;
19016;SDS011;9641;51.494;6.670;2024-02-16T12:47:42;8.57;;;4.60;;
19016;SDS011;9641;51.494;6.670;2024-02-16T12:50:11;8.53;;;4.97;;
19016;SDS011;9641;51.494;6.670;2024-02-16T12:52:39;9.37;;;4.40;;
19016;SDS011;9641;51.494;6.670;2024-02-16T12:55:06;8.90;;;4.53;;
19016;SDS011;9641;51.494;6.670;2024-02-16T12:57:35;13.37;;;4.60;;
19016;SDS011;9641;51.494;6.670;2024-02-16T13:00:02;7.67;;;4.77;;
19016;SDS011;9641;51.494;6.670;2024-02-16T13:02:29;12.50;;;5.27;;
19016;SDS011;9641;51.494;6.670;2024-02-16T13:04:56;10.50;;;5.17;;
19016;SDS011;9641;51.494;6.670;2024-02-16T13:07:24;12.73;;;5.10;;
19016;SDS011;9641;51.494;6.670;2024-02-16T13:09:51;9.60;;;4.73;;
19016;SDS011;9641;51.494;6.670;2024-02-16T13:12:18;11.77;;;5.13;;
19016;SDS011;9641;51.494;6.670;2024-02-16T13:14:48;12.67;;;5.43;;
19016;SDS011;9641;51.494;6.670;2024-02-16T13:17:15;10.27;;;5.00;;
19016;SDS011;9641;51.494;6.670;2024-02-16T13:19:42;16.20;;;6.07;;
19016;SDS011;9641;51.494;6.670;2024-02-16T13:22:09;15.13;;;6.40;;
19016;SDS011;9641;51.494;6.670;2024-02-16T13:24:37;12.73;;;6.17;;
19016;SDS011;9641;51.494;6.670;2024-02-16T13:27:04;13.40;;;6.77;;
19016;SDS011;9641;51.494;6.670;2024-02-16T13:29:31;12.23;;;7.30;;
19016;SDS011;9641;51.494;6.670;2024-02-16T13:31:58;16.07;;;7.30;;
19016;SDS011;9641;51.494;6.670;2024-02-16T13:34:25;16.67;;;7.57;;
19016;SDS011;9641;51.494;6.670;2024-02-16T13:36:52;13.60;;;8.43;;
19016;SDS011;9641;51.494;6.670;2024-02-16T13:39:19;15.80;;;8.60;;
19016;SDS011;9641;51.494;6.670;2024-02-16T13:41:49;15.27;;;7.43;;
19016;SDS011;9641;51.494;6.670;2024-02-16T13:44:16;11.80;;;7.87;;
19016;SDS011;9641;51.494;6.670;2024-02-16T13:46:44;18.57;;;7.60;;
19016;SDS011;9641;51.494;6.670;2024-02-16T13:49:13;15.47;;;8.40;;
19016;SDS011;9641;51.494;6.670;2024-02-16T13:51:40;14.67;;;8.20;;
19016;SDS011;9641;51.494;6.670;2024-02-16T13:54:08;14.67;;;8.70;;
19016;SDS011;9641;51.494;6.670;2024-02-16T13:56:34;16.60;;;8.80;;
19016;SDS011;9641;51.494;6.670;2024-02-16T13:59:05;13.70;;;8.40;;
19016;SDS011;9641;51.494;6.670;2024-02-16T14:01:32;16.00;;;8.50;;
19016;SDS011;9641;51.494;6.670;2024-02-16T14:03:59;17.67;;;9.73;;
19016;SDS011;9641;51.494;6.670;2024-02-16T14:06:28;20.03;;;9.13;;
19016;SDS011;9641;51.494;6.670;2024-02-16T14:08:56;17.57;;;9.17;;
19016;SDS011;9641;51.494;6.670;2024-02-16T14:11:23;12.60;;;8.97;;
19016;SDS011;9641;51.494;6.670;2024-02-16T14:13:49;20.80;;;9.67;;
19016;SDS011;9641;51.494;6.670;2024-02-16T14:16:18;12.60;;;8.00;;
19016;SDS011;9641;51.494;6.670;2024-02-16T14:18:44;13.93;;;8.17;;
19016;SDS011;9641;51.494;6.670;2024-02-16T14:21:10;14.40;;;7.07;;
19016;SDS011;9641;51.494;6.670;2024-02-16T14:23:37;10.27;;;6.70;;
19016;SDS011;9641;51.494;6.670;2024-02-16T14:26:04;12.17;;;7.53;;
19016;SDS011;9641;51.494;6.670;2024-02-16T14:28:32;10.03;;;6.77;;
19016;SDS011;9641;51.494;6.670;2024-02-16T14:30:59;10.97;;;7.03;;
19016;SDS011;9641;51.494;6.670;2024-02-16T14:33:27;12.97;;;7.23;;
19016;SDS011;9641;51.494;6.670;2024-02-16T14:35:54;9.30;;;7.20;;
19016;SDS011;9641;51.494;6.670;2024-02-16T14:38:21;9.50;;;6.73;;
19016;SDS011;9641;51.494;6.670;2024-02-16T14:40:48;8.43;;;6.63;;
19016;SDS011;9641;51.494;6.670;2024-02-16T14:43:15;8.83;;;6.47;;
19016;SDS011;9641;51.494;6.670;2024-02-16T14:45:42;10.70;;;6.70;;
19016;SDS011;9641;51.494;6.670;2024-02-16T14:48:09;10.53;;;6.33;;
19016;SDS011;9641;51.494;6.670;2024-02-16T14:50:38;7.03;;;6.17;;
19016;SDS011;9641;51.494;6.670;2024-02-16T14:53:06;7.47;;;6.67;;
19016;SDS011;9641;51.494;6.670;2024-02-16T14:55:33;7.43;;;6.00;;
19016;SDS011;9641;51.494;6.670;2024-02-16T14:58:00;8.70;;;6.70;;
19016;SDS011;9641;51.494;6.670;2024-02-16T15:00:27;7.93;;;6.73;;